sensor_id;sensor_type;location;lat;lon;timestamp;pressure;altitude;pressure_sealevel;temperature;humidity
54455;BME280;40364;52.270;10.546;2022-11-04T00:01:19;99162.56;;;23.54;39.69
54455;BME280;40364;52.270;10.546;2022-11-04T00:03:46;99156.53;;;23.52;39.99
54455;BME280;40364;52.270;10.546;2022-11-04T00:06:13;99167.38;;;23.01;40.95
54455;BME280;40364;52.270;10.546;2022-11-04T00:08:41;99162.41;;;23.36;40.77
54455;BME280;40364;52.270;10.546;2022-11-04T00:11:08;99157.59;;;23.45;40.13
54455;BME280;40364;52.270;10.546;2022-11-04T00:13:54;99159.72;;;23.54;40.00
54455;BME280;40364;52.270;10.546;2022-11-04T00:16:20;99155.03;;;23.16;40.54
54455;BME280;40364;52.270;10.546;2022-11-04T00:19:04;99150.63;;;22.59;41.24
54455;BME280;40364;52.270;10.546;2022-11-04T00:21:31;99140.72;;;23.20;40.85
54455;BME280;40364;52.270;10.546;2022-11-04T00:24:16;99136.25;;;22.75;41.49
54455;BME280;40364;52.270;10.546;2022-11-04T00:27:10;99144.56;;;23.57;40.10
54455;BME280;40364;52.270;10.546;2022-11-04T00:29:55;99148.94;;;23.49;40.10
54455;BME280;40364;52.270;10.546;2022-11-04T00:32:22;99143.03;;;23.12;40.82
54455;BME280;40364;52.270;10.546;2022-11-04T00:35:08;99142.81;;;22.03;42.87
54455;BME280;40364;52.270;10.546;2022-11-04T00:37:35;99139.72;;;22.23;42.95
54455;BME280;40364;52.270;10.546;2022-11-04T00:40:05;99143.88;;;22.66;41.77
54455;BME280;40364;52.270;10.546;2022-11-04T00:42:32;99140.44;;;21.51;43.90
54455;BME280;40364;52.270;10.546;2022-11-04T00:44:59;99150.06;;;21.92;43.37
54455;BME280;40364;52.270;10.546;2022-11-04T00:47:26;99159.13;;;22.25;42.68
54455;BME280;40364;52.270;10.546;2022-11-04T00:49:53;99164.13;;;21.70;43.76
54455;BME280;40364;52.270;10.546;2022-11-04T00:52:20;99158.13;;;22.06;42.86
54455;BME280;40364;52.270;10.546;2022-11-04T00:54:46;99147.69;;;21.77;43.30
54455;BME280;40364;52.270;10.546;2022-11-04T00:57:15;99146.34;;;22.42;42.06
54455;BME280;40364;52.270;10.546;2022-11-04T00:59:41;99135.88;;;21.41;43.71
54455;BME280;40364;52.270;10.546;2022-11-04T01:02:10;99130.81;;;22.81;41.42
54455;BME280;40364;52.270;10.546;2022-11-04T01:04:37;99141.47;;;22.77;41.82
54455;BME280;40364;52.270;10.546;2022-11-04T01:07:04;99144.34;;;22.64;42.25
54455;BME280;40364;52.270;10.546;2022-11-04T01:09:31;99143.47;;;22.20;42.84
54455;BME280;40364;52.270;10.546;2022-11-04T01:11:58;99134.75;;;21.51;43.86
54455;BME280;40364;52.270;10.546;2022-11-04T01:14:26;99150.72;;;21.32;44.26
54455;BME280;40364;52.270;10.546;2022-11-04T01:16:53;99147.00;;;21.73;43.73
54455;BME280;40364;52.270;10.546;2022-11-04T01:19:20;99142.00;;;21.52;43.90
54455;BME280;40364;52.270;10.546;2022-11-04T01:21:49;99141.19;;;22.28;42.59
54455;BME280;40364;52.270;10.546;2022-11-04T01:24:16;99134.13;;;21.18;44.59
54455;BME280;40364;52.270;10.546;2022-11-04T01:26:43;99136.44;;;21.48;44.39
54455;BME280;40364;52.270;10.546;2022-11-04T01:29:09;99138.38;;;21.90;43.13
54455;BME280;40364;52.270;10.546;2022-11-04T01:31:38;99137.09;;;22.29;42.30
54455;BME280;40364;52.270;10.546;2022-11-04T01:34:04;99138.41;;;22.49;42.36
54455;BME280;40364;52.270;10.546;2022-11-04T01:36:31;99136.22;;;22.06;42.92
54455;BME280;40364;52.270;10.546;2022-11-04T01:38:58;99140.88;;;21.75;43.84
54455;BME280;40364;52.270;10.546;2022-11-04T01:41:26;99141.25;;;22.49;42.00
54455;BME280;40364;52.270;10.546;2022-11-04T01:43:54;99140.00;;;22.50;42.23
54455;BME280;40364;52.270;10.546;2022-11-04T01:46:34;99141.56;;;23.08;41.56
54455;BME280;40364;52.270;10.546;2022-11-04T01:49:12;99147.81;;;23.77;40.42
54455;BME280;40364;52.270;10.546;2022-11-04T01:51:45;99155.81;;;23.39;41.15
54455;BME280;40364;52.270;10.546;2022-11-04T01:54:13;99156.88;;;23.32;41.06
54455;BME280;40364;52.270;10.546;2022-11-04T01:56:41;99157.44;;;23.18;42.74
54455;BME280;40364;52.270;10.546;2022-11-04T01:59:12;99161.13;;;22.84;44.91
54455;BME280;40364;52.270;10.546;2022-11-04T02:01:39;99152.78;;;23.33;44.19
54455;BME280;40364;52.270;10.546;2022-11-04T02:04:08;99163.22;;;23.14;44.38
54455;BME280;40364;52.270;10.546;2022-11-04T02:06:52;99169.84;;;22.77;45.52
54455;BME280;40364;52.270;10.546;2022-11-04T02:09:20;99167.44;;;23.32;44.61
54455;BME280;40364;52.270;10.546;2022-11-04T02:11:47;99166.59;;;22.66;46.27
54455;BME280;40364;52.270;10.546;2022-11-04T02:14:32;99161.34;;;23.64;44.39
54455;BME280;40364;52.270;10.546;2022-11-04T02:17:04;99166.56;;;23.66;44.30
54455;BME280;40364;52.270;10.546;2022-11-04T02:19:58;99167.22;;;24.10;43.26
54455;BME280;40364;52.270;10.546;2022-11-04T02:22:40;99176.41;;;24.23;43.18
54455;BME280;40364;52.270;10.546;2022-11-04T02:25:34;99178.53;;;23.39;45.20
54455;BME280;40364;52.270;10.546;2022-11-04T02:28:36;99180.63;;;23.69;44.58
54455;BME280;40364;52.270;10.546;2022-11-04T02:33:41;99189.84;;;23.08;46.58
54455;BME280;40364;52.270;10.546;2022-11-04T02:36:19;99211.31;;;23.09;46.00
54455;BME280;40364;52.270;10.546;2022-11-04T02:38:51;99207.09;;;23.13;46.44
54455;BME280;40364;52.270;10.546;2022-11-04T02:41:31;99206.63;;;23.37;45.67
54455;BME280;40364;52.270;10.546;2022-11-04T02:44:12;99208.94;;;23.07;47.41
54455;BME280;40364;52.270;10.546;2022-11-04T02:46:47;99202.59;;;24.09;45.24
54455;BME280;40364;52.270;10.546;2022-11-04T02:49:18;99208.88;;;22.38;49.78
54455;BME280;40364;52.270;10.546;2022-11-04T02:51:49;99197.97;;;23.18;49.21
54455;BME280;40364;52.270;10.546;2022-11-04T02:54:21;99184.16;;;23.51;48.26
54455;BME280;40364;52.270;10.546;2022-11-04T02:56:53;99181.72;;;22.97;50.55
54455;BME280;40364;52.270;10.546;2022-11-04T02:59:28;99171.81;;;23.76;48.86
54455;BME280;40364;52.270;10.546;2022-11-04T03:01:58;99177.28;;;22.96;50.73
54455;BME280;40364;52.270;10.546;2022-11-04T03:04:29;99180.59;;;23.38;49.75
54455;BME280;40364;52.270;10.546;2022-11-04T03:06:58;99181.63;;;23.75;49.06
54455;BME280;40364;52.270;10.546;2022-11-04T03:09:29;99176.22;;;24.17;48.07
54455;BME280;40364;52.270;10.546;2022-11-04T03:11:59;99181.66;;;23.84;48.86
54455;BME280;40364;52.270;10.546;2022-11-04T03:14:31;99168.47;;;24.18;48.18
54455;BME280;40364;52.270;10.546;2022-11-04T03:17:05;99168.81;;;24.20;48.21
54455;BME280;40364;52.270;10.546;2022-11-04T03:19:37;99168.28;;;24.89;46.45
54455;BME280;40364;52.270;10.546;2022-11-04T03:22:10;99177.75;;;24.77;46.29
54455;BME280;40364;52.270;10.546;2022-11-04T03:24:38;99172.78;;;23.30;49.60
54455;BME280;40364;52.270;10.546;2022-11-04T03:27:08;99175.88;;;23.66;49.13
54455;BME280;40364;52.270;10.546;2022-11-04T03:29:45;99171.72;;;24.29;47.75
54455;BME280;40364;52.270;10.546;2022-11-04T03:32:21;99181.38;;;24.41;47.30
54455;BME280;40364;52.270;10.546;2022-11-04T03:34:50;99179.69;;;23.72;48.35
54455;BME280;40364;52.270;10.546;2022-11-04T03:37:17;99190.09;;;23.66;48.41
54455;BME280;40364;52.270;10.546;2022-11-04T03:39:44;99194.13;;;22.91;51.57
54455;BME280;40364;52.270;10.546;2022-11-04T03:42:12;99204.94;;;24.01;49.27
54455;BME280;40364;52.270;10.546;2022-11-04T03:44:47;99224.56;;;24.08;48.69
54455;BME280;40364;52.270;10.546;2022-11-04T03:47:16;99234.97;;;22.59;52.98
54455;BME280;40364;52.270;10.546;2022-11-04T03:49:45;99234.94;;;22.84;53.21
54455;BME280;40364;52.270;10.546;2022-11-04T03:52:13;99239.72;;;22.62;53.19
54455;BME280;40364;52.270;10.546;2022-11-04T03:54:40;99262.09;;;22.34;54.33
54455;BME280;40364;52.270;10.546;2022-11-04T04:00:08;99261.47;;;21.63;57.87
54455;BME280;40364;52.270;10.546;2022-11-04T04:02:48;99262.00;;;22.00;55.82
54455;BME280;40364;52.270;10.546;2022-11-04T04:05:21;99251.56;;;21.97;56.37
54455;BME280;40364;52.270;10.546;2022-11-04T04:07:54;99264.38;;;21.47;57.33
54455;BME280;40364;52.270;10.546;2022-11-04T04:10:28;99275.16;;;20.78;59.11
54455;BME280;40364;52.270;10.546;2022-11-04T04:13:13;99286.75;;;22.97;51.36
54455;BME280;40364;52.270;10.546;2022-11-04T04:15:46;99276.50;;;21.89;54.62
54455;BME280;40364;52.270;10.546;2022-11-04T04:18:18;99263.81;;;22.44;52.02
54455;BME280;40364;52.270;10.546;2022-11-04T04:20:50;99274.03;;;22.55;52.62
54455;BME280;40364;52.270;10.546;2022-11-04T04:23:22;99275.41;;;22.12;52.03
54455;BME280;40364;52.270;10.546;2022-11-04T04:26:08;99284.88;;;21.38;56.04
54455;BME280;40364;52.270;10.546;2022-11-04T04:28:55;99288.09;;;22.45;52.50
54455;BME280;40364;52.270;10.546;2022-11-04T04:31:23;99301.56;;;21.49;53.17
54455;BME280;40364;52.270;10.546;2022-11-04T04:34:16;99297.19;;;22.15;51.56
54455;BME280;40364;52.270;10.546;2022-11-04T04:36:45;99297.31;;;23.09;48.73
54455;BME280;40364;52.270;10.546;2022-11-04T04:39:16;99296.91;;;21.97;50.40
54455;BME280;40364;52.270;10.546;2022-11-04T04:42:02;99303.59;;;22.66;48.10
54455;BME280;40364;52.270;10.546;2022-11-04T04:44:47;99310.16;;;23.01;47.84
54455;BME280;40364;52.270;10.546;2022-11-04T04:47:39;99314.75;;;22.86;47.45
54455;BME280;40364;52.270;10.546;2022-11-04T04:50:10;99315.63;;;21.24;50.79
54455;BME280;40364;52.270;10.546;2022-11-04T04:52:39;99317.56;;;21.56;49.28
54455;BME280;40364;52.270;10.546;2022-11-04T04:55:08;99318.19;;;21.47;49.24
54455;BME280;40364;52.270;10.546;2022-11-04T04:57:35;99314.06;;;21.64;47.81
54455;BME280;40364;52.270;10.546;2022-11-04T05:00:03;99321.69;;;22.85;46.48
54455;BME280;40364;52.270;10.546;2022-11-04T05:02:30;99319.59;;;22.98;45.45
54455;BME280;40364;52.270;10.546;2022-11-04T05:04:57;99337.66;;;22.66;45.41
54455;BME280;40364;52.270;10.546;2022-11-04T05:07:25;99328.97;;;21.81;47.13
54455;BME280;40364;52.270;10.546;2022-11-04T05:09:52;99321.50;;;23.14;44.70
54455;BME280;40364;52.270;10.546;2022-11-04T05:12:19;99332.88;;;21.58;47.17
54455;BME280;40364;52.270;10.546;2022-11-04T05:14:46;99338.94;;;22.40;45.49
54455;BME280;40364;52.270;10.546;2022-11-04T05:17:13;99346.22;;;22.79;44.72
54455;BME280;40364;52.270;10.546;2022-11-04T05:19:40;99336.66;;;22.47;45.00
54455;BME280;40364;52.270;10.546;2022-11-04T05:22:07;99345.25;;;23.42;43.29
54455;BME280;40364;52.270;10.546;2022-11-04T05:24:35;99355.41;;;22.45;45.37
54455;BME280;40364;52.270;10.546;2022-11-04T05:27:02;99366.97;;;21.55;46.44
54455;BME280;40364;52.270;10.546;2022-11-04T05:29:29;99361.00;;;21.36;47.07
54455;BME280;40364;52.270;10.546;2022-11-04T05:31:55;99366.06;;;21.87;45.98
54455;BME280;40364;52.270;10.546;2022-11-04T05:34:22;99357.31;;;22.48;44.57
54455;BME280;40364;52.270;10.546;2022-11-04T05:36:49;99369.41;;;21.69;45.72
54455;BME280;40364;52.270;10.546;2022-11-04T05:39:15;99372.97;;;20.79;48.11
54455;BME280;40364;52.270;10.546;2022-11-04T05:41:44;99370.75;;;20.87;48.45
54455;BME280;40364;52.270;10.546;2022-11-04T05:44:10;99379.50;;;20.76;48.12
54455;BME280;40364;52.270;10.546;2022-11-04T05:46:37;99377.16;;;20.38;48.80
54455;BME280;40364;52.270;10.546;2022-11-04T05:49:04;99382.34;;;19.64;50.47
54455;BME280;40364;52.270;10.546;2022-11-04T05:51:31;99393.50;;;20.11;50.18
54455;BME280;40364;52.270;10.546;2022-11-04T05:53:59;99403.13;;;21.02;48.20
54455;BME280;40364;52.270;10.546;2022-11-04T05:56:26;99391.53;;;20.08;49.33
54455;BME280;40364;52.270;10.546;2022-11-04T05:58:54;99391.34;;;20.71;48.60
54455;BME280;40364;52.270;10.546;2022-11-04T06:01:29;99399.69;;;20.78;47.70
54455;BME280;40364;52.270;10.546;2022-11-04T06:03:56;99404.44;;;21.13;46.88
54455;BME280;40364;52.270;10.546;2022-11-04T06:06:24;99401.91;;;21.35;46.84
54455;BME280;40364;52.270;10.546;2022-11-04T06:08:52;99413.00;;;20.61;46.82
54455;BME280;40364;52.270;10.546;2022-11-04T06:11:20;99424.00;;;20.00;49.10
54455;BME280;40364;52.270;10.546;2022-11-04T06:13:47;99438.63;;;20.34;48.27
54455;BME280;40364;52.270;10.546;2022-11-04T06:16:15;99455.63;;;21.39;46.39
54455;BME280;40364;52.270;10.546;2022-11-04T06:18:42;99468.78;;;20.21;47.45
54455;BME280;40364;52.270;10.546;2022-11-04T06:21:18;99468.06;;;19.77;49.57
54455;BME280;40364;52.270;10.546;2022-11-04T06:23:46;99464.44;;;20.36;47.95
54455;BME280;40364;52.270;10.546;2022-11-04T06:26:14;99439.28;;;20.02;48.44
54455;BME280;40364;52.270;10.546;2022-11-04T06:28:40;99408.88;;;21.31;45.75
54455;BME280;40364;52.270;10.546;2022-11-04T06:31:09;99411.34;;;20.96;45.37
54455;BME280;40364;52.270;10.546;2022-11-04T06:33:38;99429.06;;;21.33;45.32
54455;BME280;40364;52.270;10.546;2022-11-04T06:36:06;99424.13;;;20.32;47.05
54455;BME280;40364;52.270;10.546;2022-11-04T06:38:34;99454.50;;;21.16;46.03
54455;BME280;40364;52.270;10.546;2022-11-04T06:41:02;99478.91;;;21.75;44.75
54455;BME280;40364;52.270;10.546;2022-11-04T06:43:29;99487.22;;;23.33;41.22
54455;BME280;40364;52.270;10.546;2022-11-04T06:45:58;99485.38;;;22.21;43.24
54455;BME280;40364;52.270;10.546;2022-11-04T06:48:25;99469.00;;;21.83;43.59
54455;BME280;40364;52.270;10.546;2022-11-04T06:50:53;99478.69;;;22.57;42.93
54455;BME280;40364;52.270;10.546;2022-11-04T06:53:20;99496.38;;;22.19;43.27
54455;BME280;40364;52.270;10.546;2022-11-04T06:55:46;99499.59;;;21.27;44.75
54455;BME280;40364;52.270;10.546;2022-11-04T06:58:13;99489.59;;;20.50;46.28
54455;BME280;40364;52.270;10.546;2022-11-04T07:00:40;99480.91;;;20.02;47.77
54455;BME280;40364;52.270;10.546;2022-11-04T07:03:08;99472.03;;;20.95;46.35
54455;BME280;40364;52.270;10.546;2022-11-04T07:05:34;99475.16;;;20.25;48.02
54455;BME280;40364;52.270;10.546;2022-11-04T07:08:03;99466.53;;;20.88;46.80
54455;BME280;40364;52.270;10.546;2022-11-04T07:10:29;99465.28;;;20.89;46.61
54455;BME280;40364;52.270;10.546;2022-11-04T07:12:56;99463.00;;;21.00;46.29
54455;BME280;40364;52.270;10.546;2022-11-04T07:15:23;99463.72;;;20.32;47.61
54455;BME280;40364;52.270;10.546;2022-11-04T07:17:49;99466.38;;;21.44;45.71
54455;BME280;40364;52.270;10.546;2022-11-04T07:20:16;99460.94;;;20.68;47.29
54455;BME280;40364;52.270;10.546;2022-11-04T07:22:43;99460.97;;;20.48;48.13
54455;BME280;40364;52.270;10.546;2022-11-04T07:25:11;99456.50;;;20.67;47.67
54455;BME280;40364;52.270;10.546;2022-11-04T07:27:38;99467.97;;;20.60;47.38
54455;BME280;40364;52.270;10.546;2022-11-04T07:30:05;99474.59;;;20.14;47.99
54455;BME280;40364;52.270;10.546;2022-11-04T07:32:32;99467.72;;;20.15;48.31
54455;BME280;40364;52.270;10.546;2022-11-04T07:34:59;99476.56;;;19.54;50.22
54455;BME280;40364;52.270;10.546;2022-11-04T07:37:26;99487.53;;;19.72;49.10
54455;BME280;40364;52.270;10.546;2022-11-04T07:39:52;99498.25;;;19.34;49.78
54455;BME280;40364;52.270;10.546;2022-11-04T07:42:20;99501.84;;;20.24;47.97
54455;BME280;40364;52.270;10.546;2022-11-04T07:44:47;99506.53;;;19.91;48.93
54455;BME280;40364;52.270;10.546;2022-11-04T07:47:14;99510.84;;;20.59;46.83
54455;BME280;40364;52.270;10.546;2022-11-04T07:49:40;99519.16;;;19.63;48.97
54455;BME280;40364;52.270;10.546;2022-11-04T07:52:07;99522.53;;;20.61;46.86
54455;BME280;40364;52.270;10.546;2022-11-04T07:54:34;99528.31;;;21.09;45.17
54455;BME280;40364;52.270;10.546;2022-11-04T07:57:01;99518.47;;;21.34;45.13
54455;BME280;40364;52.270;10.546;2022-11-04T07:59:29;99517.69;;;21.13;44.99
54455;BME280;40364;52.270;10.546;2022-11-04T08:01:55;99521.81;;;20.17;47.34
54455;BME280;40364;52.270;10.546;2022-11-04T08:04:22;99529.56;;;21.90;43.45
54455;BME280;40364;52.270;10.546;2022-11-04T08:06:49;99527.59;;;21.05;44.82
54455;BME280;40364;52.270;10.546;2022-11-04T08:09:15;99542.13;;;21.07;45.29
54455;BME280;40364;52.270;10.546;2022-11-04T08:11:42;99540.84;;;22.51;41.88
54455;BME280;40364;52.270;10.546;2022-11-04T08:14:09;99550.22;;;22.35;42.45
54455;BME280;40364;52.270;10.546;2022-11-04T08:16:36;99545.22;;;22.27;42.66
54455;BME280;40364;52.270;10.546;2022-11-04T08:19:03;99551.91;;;21.55;43.84
54455;BME280;40364;52.270;10.546;2022-11-04T08:21:31;99550.16;;;21.61;42.97
54455;BME280;40364;52.270;10.546;2022-11-04T08:23:58;99550.94;;;21.45;43.87
54455;BME280;40364;52.270;10.546;2022-11-04T08:26:27;99556.88;;;22.58;41.27
54455;BME280;40364;52.270;10.546;2022-11-04T08:28:54;99554.75;;;21.55;43.08
54455;BME280;40364;52.270;10.546;2022-11-04T08:31:22;99561.75;;;22.86;41.19
54455;BME280;40364;52.270;10.546;2022-11-04T08:33:51;99565.72;;;22.89;40.75
54455;BME280;40364;52.270;10.546;2022-11-04T08:36:20;99565.22;;;22.77;40.74
54455;BME280;40364;52.270;10.546;2022-11-04T08:38:48;99566.34;;;21.44;43.41
54455;BME280;40364;52.270;10.546;2022-11-04T08:41:16;99560.28;;;23.32;40.03
54455;BME280;40364;52.270;10.546;2022-11-04T08:43:44;99580.09;;;23.23;39.92
54455;BME280;40364;52.270;10.546;2022-11-04T08:46:11;99581.78;;;23.21;39.84
54455;BME280;40364;52.270;10.546;2022-11-04T08:48:39;99576.47;;;24.08;38.80
54455;BME280;40364;52.270;10.546;2022-11-04T08:51:11;99570.06;;;23.06;39.76
54455;BME280;40364;52.270;10.546;2022-11-04T08:53:38;99575.28;;;23.07;40.44
54455;BME280;40364;52.270;10.546;2022-11-04T08:56:10;99582.69;;;22.76;41.11
54455;BME280;40364;52.270;10.546;2022-11-04T08:58:37;99585.19;;;23.15;40.16
54455;BME280;40364;52.270;10.546;2022-11-04T09:01:04;99582.28;;;21.71;42.40
54455;BME280;40364;52.270;10.546;2022-11-04T09:03:31;99583.00;;;21.59;43.61
54455;BME280;40364;52.270;10.546;2022-11-04T09:05:59;99591.50;;;21.59;43.34
54455;BME280;40364;52.270;10.546;2022-11-04T09:08:27;99585.38;;;21.93;43.31
54455;BME280;40364;52.270;10.546;2022-11-04T09:10:54;99583.25;;;20.76;45.44
54455;BME280;40364;52.270;10.546;2022-11-04T09:13:21;99571.03;;;21.35;44.26
54455;BME280;40364;52.270;10.546;2022-11-04T09:15:47;99573.22;;;22.95;40.98
54455;BME280;40364;52.270;10.546;2022-11-04T09:18:14;99563.78;;;22.98;41.01
54455;BME280;40364;52.270;10.546;2022-11-04T09:20:41;99561.91;;;23.21;40.18
54455;BME280;40364;52.270;10.546;2022-11-04T09:23:09;99553.50;;;21.72;42.73
54455;BME280;40364;52.270;10.546;2022-11-04T09:25:37;99562.84;;;22.18;41.90
54455;BME280;40364;52.270;10.546;2022-11-04T09:28:04;99561.06;;;22.24;41.67
54455;BME280;40364;52.270;10.546;2022-11-04T09:30:30;99569.19;;;23.22;40.46
54455;BME280;40364;52.270;10.546;2022-11-04T09:32:57;99565.19;;;23.06;40.45
54455;BME280;40364;52.270;10.546;2022-11-04T09:35:24;99567.91;;;23.48;39.70
54455;BME280;40364;52.270;10.546;2022-11-04T09:37:52;99561.53;;;24.73;37.75
54455;BME280;40364;52.270;10.546;2022-11-04T09:40:21;99558.28;;;25.05;37.03
54455;BME280;40364;52.270;10.546;2022-11-04T09:42:58;99556.91;;;24.66;37.85
54455;BME280;40364;52.270;10.546;2022-11-04T09:45:28;99555.97;;;23.02;40.67
54455;BME280;40364;52.270;10.546;2022-11-04T09:48:00;99541.19;;;22.95;40.46
54455;BME280;40364;52.270;10.546;2022-11-04T09:50:31;99534.59;;;22.14;42.08
54455;BME280;40364;52.270;10.546;2022-11-04T09:53:06;99522.13;;;22.54;41.01
54455;BME280;40364;52.270;10.546;2022-11-04T09:55:38;99516.44;;;23.08;39.69
54455;BME280;40364;52.270;10.546;2022-11-04T09:58:11;99524.50;;;22.84;40.65
54455;BME280;40364;52.270;10.546;2022-11-04T10:00:41;99515.97;;;23.60;38.24
54455;BME280;40364;52.270;10.546;2022-11-04T10:03:21;99519.44;;;24.68;37.55
54455;BME280;40364;52.270;10.546;2022-11-04T10:05:59;99526.56;;;22.55;40.32
54455;BME280;40364;52.270;10.546;2022-11-04T10:08:55;99529.28;;;23.50;39.16
54455;BME280;40364;52.270;10.546;2022-11-04T10:11:32;99529.88;;;22.24;41.08
54455;BME280;40364;52.270;10.546;2022-11-04T10:14:14;99533.16;;;22.23;41.03
54455;BME280;40364;52.270;10.546;2022-11-04T10:16:55;99536.59;;;22.30;41.13
54455;BME280;40364;52.270;10.546;2022-11-04T10:19:37;99551.22;;;23.63;39.50
54455;BME280;40364;52.270;10.546;2022-11-04T10:22:14;99567.91;;;23.35;39.44
54455;BME280;40364;52.270;10.546;2022-11-04T10:24:53;99576.25;;;24.15;38.21
54455;BME280;40364;52.270;10.546;2022-11-04T10:27:26;99565.84;;;24.56;37.43
54455;BME280;40364;52.270;10.546;2022-11-04T10:29:58;99572.44;;;21.92;41.01
54455;BME280;40364;52.270;10.546;2022-11-04T10:32:29;99584.03;;;23.00;39.23
54455;BME280;40364;52.270;10.546;2022-11-04T10:34:59;99580.66;;;23.81;37.98
54455;BME280;40364;52.270;10.546;2022-11-04T10:37:27;99588.81;;;23.16;38.81
54455;BME280;40364;52.270;10.546;2022-11-04T10:40:06;99584.72;;;23.30;37.49
54455;BME280;40364;52.270;10.546;2022-11-04T10:42:40;99590.88;;;22.45;38.39
54455;BME280;40364;52.270;10.546;2022-11-04T10:45:10;99584.28;;;23.44;37.83
54455;BME280;40364;52.270;10.546;2022-11-04T10:47:43;99585.84;;;24.43;36.16
54455;BME280;40364;52.270;10.546;2022-11-04T10:50:20;99590.41;;;22.75;38.52
54455;BME280;40364;52.270;10.546;2022-11-04T10:52:49;99599.63;;;23.46;37.08
54455;BME280;40364;52.270;10.546;2022-11-04T10:55:27;99601.19;;;22.39;38.80
54455;BME280;40364;52.270;10.546;2022-11-04T10:57:56;99599.75;;;22.02;39.76
54455;BME280;40364;52.270;10.546;2022-11-04T11:00:41;99594.63;;;23.76;37.17
54455;BME280;40364;52.270;10.546;2022-11-04T11:03:26;99588.25;;;23.08;38.49
54455;BME280;40364;52.270;10.546;2022-11-04T11:05:55;99585.97;;;24.39;36.45
54455;BME280;40364;52.270;10.546;2022-11-04T11:08:35;99572.00;;;24.54;36.07
54455;BME280;40364;52.270;10.546;2022-11-04T11:11:05;99578.25;;;24.27;36.00
54455;BME280;40364;52.270;10.546;2022-11-04T11:13:34;99583.00;;;24.65;36.13
54455;BME280;40364;52.270;10.546;2022-11-04T11:16:17;99596.41;;;24.86;35.41
54455;BME280;40364;52.270;10.546;2022-11-04T11:18:44;99589.88;;;24.55;35.94
54455;BME280;40364;52.270;10.546;2022-11-04T11:21:41;99600.81;;;25.62;34.61
54455;BME280;40364;52.270;10.546;2022-11-04T11:24:13;99610.91;;;25.23;35.52
54455;BME280;40364;52.270;10.546;2022-11-04T11:26:41;99613.03;;;23.46;37.60
54455;BME280;40364;52.270;10.546;2022-11-04T11:29:18;99619.63;;;23.30;37.95
54455;BME280;40364;52.270;10.546;2022-11-04T11:31:49;99603.34;;;23.05;37.96
54455;BME280;40364;52.270;10.546;2022-11-04T11:34:20;99603.72;;;23.33;37.56
54455;BME280;40364;52.270;10.546;2022-11-04T11:36:51;99613.03;;;23.33;37.46
54455;BME280;40364;52.270;10.546;2022-11-04T11:39:21;99610.31;;;23.42;36.94
54455;BME280;40364;52.270;10.546;2022-11-04T11:41:56;99613.38;;;21.91;39.44
54455;BME280;40364;52.270;10.546;2022-11-04T11:44:29;99617.34;;;23.25;37.98
54455;BME280;40364;52.270;10.546;2022-11-04T11:47:00;99609.63;;;23.89;36.90
54455;BME280;40364;52.270;10.546;2022-11-04T11:49:30;99597.72;;;23.56;37.44
54455;BME280;40364;52.270;10.546;2022-11-04T11:52:16;99605.44;;;23.68;37.01
54455;BME280;40364;52.270;10.546;2022-11-04T11:54:49;99609.63;;;23.13;38.49
54455;BME280;40364;52.270;10.546;2022-11-04T11:57:30;99599.84;;;23.90;36.82
54455;BME280;40364;52.270;10.546;2022-11-04T12:00:03;99612.56;;;23.35;36.87
54455;BME280;40364;52.270;10.546;2022-11-04T12:02:41;99604.88;;;23.61;37.75
54455;BME280;40364;52.270;10.546;2022-11-04T12:05:12;99616.72;;;24.19;36.65
54455;BME280;40364;52.270;10.546;2022-11-04T12:07:45;99621.22;;;24.98;35.07
54455;BME280;40364;52.270;10.546;2022-11-04T12:10:29;99616.06;;;25.06;35.76
54455;BME280;40364;52.270;10.546;2022-11-04T12:13:05;99608.91;;;25.01;34.89
54455;BME280;40364;52.270;10.546;2022-11-04T12:15:47;99625.94;;;24.79;35.19
54455;BME280;40364;52.270;10.546;2022-11-04T12:18:44;99618.59;;;23.11;37.29
54455;BME280;40364;52.270;10.546;2022-11-04T12:21:16;99615.78;;;23.49;36.96
54455;BME280;40364;52.270;10.546;2022-11-04T12:23:50;99623.38;;;23.14;37.92
54455;BME280;40364;52.270;10.546;2022-11-04T12:26:30;99618.94;;;23.39;36.96
54455;BME280;40364;52.270;10.546;2022-11-04T12:29:12;99617.72;;;24.38;35.85
54455;BME280;40364;52.270;10.546;2022-11-04T12:31:49;99623.91;;;24.58;35.36
54455;BME280;40364;52.270;10.546;2022-11-04T12:34:32;99626.69;;;24.93;35.13
54455;BME280;40364;52.270;10.546;2022-11-04T12:37:10;99629.06;;;24.94;34.95
54455;BME280;40364;52.270;10.546;2022-11-04T12:40:10;99633.06;;;25.80;33.75
54455;BME280;40364;52.270;10.546;2022-11-04T12:42:46;99642.59;;;25.56;33.94
54455;BME280;40364;52.270;10.546;2022-11-04T12:45:24;99647.69;;;24.86;35.23
54455;BME280;40364;52.270;10.546;2022-11-04T12:47:58;99653.41;;;25.30;34.99
54455;BME280;40364;52.270;10.546;2022-11-04T12:50:39;99657.66;;;25.03;34.33
54455;BME280;40364;52.270;10.546;2022-11-04T12:53:19;99645.97;;;24.67;34.82
54455;BME280;40364;52.270;10.546;2022-11-04T12:55:58;99644.28;;;24.78;35.02
54455;BME280;40364;52.270;10.546;2022-11-04T12:58:40;99658.31;;;23.78;36.26
54455;BME280;40364;52.270;10.546;2022-11-04T13:01:13;99647.81;;;24.61;35.27
54455;BME280;40364;52.270;10.546;2022-11-04T13:03:47;99652.38;;;23.47;36.49
54455;BME280;40364;52.270;10.546;2022-11-04T13:06:20;99641.84;;;24.68;34.96
54455;BME280;40364;52.270;10.546;2022-11-04T13:08:53;99648.94;;;25.60;33.65
54455;BME280;40364;52.270;10.546;2022-11-04T13:11:25;99650.69;;;24.01;36.54
54455;BME280;40364;52.270;10.546;2022-11-04T13:14:01;99663.66;;;23.76;36.97
54455;BME280;40364;52.270;10.546;2022-11-04T13:16:31;99658.56;;;23.04;37.80
54455;BME280;40364;52.270;10.546;2022-11-04T13:19:00;99654.44;;;23.60;37.53